createdAt,value
2023-05-21T00:02:00.257Z,4.85
2023-05-21T00:07:04.023Z,4.80
2023-05-21T00:12:08.921Z,5.05
2023-05-21T00:17:13.913Z,4.93
2023-05-21T00:22:17.559Z,5.30
2023-05-21T00:27:21.280Z,5.33
2023-05-21T00:32:26.369Z,5.35
2023-05-21T00:37:34.574Z,5.85
2023-05-21T00:42:40.042Z,5.72
2023-05-21T00:47:45.496Z,5.10
2023-05-21T00:52:49.402Z,5.40
2023-05-21T00:57:53.148Z,5.10
2023-05-21T01:02:58.233Z,5.35
2023-05-21T01:08:02.140Z,5.60
2023-05-21T01:13:05.790Z,5.67
2023-05-21T01:18:11.042Z,5.30
2023-05-21T01:23:17.156Z,5.45
2023-05-21T01:28:20.901Z,5.78
2023-05-21T01:33:30.535Z,5.70
2023-05-21T01:38:42.827Z,5.25
2023-05-21T01:43:48.223Z,5.80
2023-05-21T01:48:54.221Z,5.68
2023-05-21T01:53:59.371Z,5.60
2023-05-21T01:59:03.007Z,6.30
2023-05-21T02:04:07.025Z,6.15
2023-05-21T02:09:12.249Z,6.30
2023-05-21T02:14:15.862Z,6.38
2023-05-21T02:19:19.571Z,6.07
2023-05-21T02:24:24.653Z,6.28
2023-05-21T02:29:28.146Z,6.07
2023-05-21T02:34:33.237Z,6.57
2023-05-21T02:44:41.304Z,5.93
2023-05-21T02:49:44.945Z,7.05
2023-05-21T02:54:49.968Z,6.93
2023-05-21T02:59:53.623Z,7.72
2023-05-21T03:04:57.138Z,7.43
2023-05-21T03:10:02.067Z,7.57
2023-05-21T03:15:08.851Z,7.47
2023-05-21T03:20:17.229Z,7.68
2023-05-21T03:25:25.331Z,8.15
2023-05-21T03:30:28.956Z,7.75
2023-05-21T03:35:32.533Z,6.82
2023-05-21T03:40:37.421Z,7.95
2023-05-21T03:45:43.552Z,7.43
2023-05-21T03:50:48.190Z,7.45
2023-05-21T03:55:55.463Z,7.50
2023-05-21T04:00:59.193Z,8.30
2023-05-21T04:06:02.836Z,7.07
2023-05-21T04:11:07.856Z,7.82
2023-05-21T04:16:14.788Z,7.78
2023-05-21T04:21:18.472Z,7.70
2023-05-21T04:26:23.913Z,6.03
2023-05-21T04:31:27.427Z,6.57
2023-05-21T04:36:30.996Z,6.05
2023-05-21T04:41:36.949Z,5.97
2023-05-21T04:46:41.787Z,6.20
2023-05-21T04:51:45.529Z,6.03
2023-05-21T04:56:50.685Z,5.85
2023-05-21T05:01:54.392Z,5.50
2023-05-21T05:06:57.882Z,5.07
2023-05-21T05:12:03.115Z,4.67
2023-05-21T05:17:08.422Z,5.05
2023-05-21T05:22:13.500Z,4.60
2023-05-21T05:27:19.244Z,4.40
2023-05-21T05:32:22.827Z,4.47
2023-05-21T05:37:26.388Z,4.30
2023-05-21T05:42:31.347Z,4.47
2023-05-21T05:47:35.001Z,3.90
2023-05-21T05:52:38.695Z,3.95
2023-05-21T05:57:45.119Z,4.30
2023-05-21T06:02:49.483Z,4.20
2023-05-21T06:07:53.171Z,3.65
2023-05-21T06:12:58.153Z,3.55
2023-05-21T06:18:01.752Z,3.05
2023-05-21T06:23:06.745Z,3.60
2023-05-21T06:28:11.753Z,4.22
2023-05-21T06:33:15.515Z,4.40
2023-05-21T06:38:19.199Z,4.10
2023-05-21T06:43:24.343Z,4.30
2023-05-21T06:48:27.848Z,4.40
2023-05-21T06:53:31.549Z,4.20
2023-05-21T06:58:36.698Z,3.77
2023-05-21T07:03:40.340Z,3.90
2023-05-21T07:08:43.928Z,4.20
2023-05-21T07:13:48.934Z,3.80
2023-05-21T07:18:52.459Z,3.78
2023-05-21T07:23:56.807Z,4.00
2023-05-21T07:34:05.208Z,3.88
2023-05-21T07:39:08.824Z,3.65
2023-05-21T07:44:13.713Z,3.07
2023-05-21T07:49:17.690Z,3.20
2023-05-21T07:54:21.238Z,3.33
2023-05-21T07:59:26.520Z,2.88
2023-05-21T08:04:30.221Z,3.20
2023-05-21T08:09:33.745Z,2.70
2023-05-21T08:14:38.715Z,2.80
2023-05-21T08:19:42.182Z,2.95
2023-05-21T08:24:45.738Z,3.20
2023-05-21T08:29:51.008Z,3.40
2023-05-21T08:34:54.676Z,3.20
2023-05-21T08:39:58.203Z,3.40
2023-05-21T08:45:06.887Z,3.50
2023-05-21T08:50:12.218Z,3.60
2023-05-21T08:55:15.927Z,3.63
2023-05-21T09:00:21.343Z,3.55
2023-05-21T09:05:26.549Z,3.50
2023-05-21T09:10:37.034Z,3.40
2023-05-21T09:15:42.087Z,3.22
2023-05-21T09:20:45.986Z,3.80
2023-05-21T09:25:52.153Z,3.40
2023-05-21T09:30:57.053Z,3.50
2023-05-21T09:36:00.800Z,3.22
2023-05-21T09:41:06.704Z,3.08
2023-05-21T09:46:11.744Z,3.22
2023-05-21T09:51:17.155Z,3.20
2023-05-21T09:56:25.576Z,3.80
2023-05-21T10:01:33.925Z,3.65
2023-05-21T10:06:42.817Z,3.85
2023-05-21T10:11:46.740Z,3.40
2023-05-21T10:16:53.927Z,3.40
2023-05-21T10:21:58.165Z,3.88
2023-05-21T10:32:08.105Z,3.75
2023-05-21T10:37:14.539Z,3.70
2023-05-21T10:42:23.076Z,3.80
2023-05-21T10:47:49.110Z,3.85
2023-05-21T10:53:03.550Z,3.50
2023-05-21T10:58:39.841Z,3.78
2023-05-21T11:03:45.242Z,3.70
2023-05-21T11:08:49.612Z,3.55
2023-05-21T11:13:53.232Z,4.00
2023-05-21T11:19:03.016Z,3.63
2023-05-21T11:24:08.892Z,3.90
2023-05-21T11:29:12.802Z,3.97
2023-05-21T11:34:22.046Z,3.65
2023-05-21T11:39:27.726Z,3.95
2023-05-21T11:44:40.665Z,3.47
2023-05-21T11:49:46.665Z,3.22
2023-05-21T11:54:55.700Z,3.55
2023-05-21T12:00:00.506Z,3.45
2023-05-21T12:05:06.544Z,3.63
2023-05-21T12:10:10.941Z,3.90
2023-05-21T12:20:20.167Z,3.60
2023-05-21T12:25:23.882Z,3.55
2023-05-21T12:30:27.943Z,5.47
2023-05-21T12:35:33.326Z,3.90
2023-05-21T12:40:39.030Z,3.88
2023-05-21T12:45:44.806Z,3.85
2023-05-21T12:50:49.998Z,4.43
2023-05-21T12:55:56.489Z,4.10
2023-05-21T13:01:00.967Z,4.30
2023-05-21T13:06:08.556Z,3.75
2023-05-21T13:11:12.354Z,3.10
2023-05-21T13:16:16.584Z,3.60
2023-05-21T13:26:24.764Z,3.80
2023-05-21T13:31:28.741Z,3.80
2023-05-21T13:36:33.757Z,3.97
2023-05-21T13:41:37.425Z,4.03
2023-05-21T13:46:41.051Z,4.23
2023-05-21T13:51:46.055Z,3.57
2023-05-21T13:56:49.594Z,3.70
2023-05-21T14:01:53.292Z,3.30
2023-05-21T14:06:58.329Z,2.97
2023-05-21T14:12:01.858Z,2.70
2023-05-21T14:17:05.589Z,2.67
2023-05-21T14:22:10.532Z,2.63
2023-05-21T14:27:15.423Z,2.50
2023-05-21T14:32:19.480Z,2.20
2023-05-21T14:37:24.609Z,2.25
2023-05-21T14:42:28.141Z,2.03
2023-05-21T14:47:31.780Z,2.13
2023-05-21T14:52:36.903Z,2.13
2023-05-21T14:57:40.518Z,2.20
2023-05-21T15:02:44.085Z,2.20
2023-05-21T15:07:49.183Z,2.63
2023-05-21T15:12:53.025Z,2.92
2023-05-21T15:17:57.850Z,2.30
2023-05-21T15:28:09.436Z,2.78
2023-05-21T15:33:13.135Z,2.80
2023-05-21T15:38:18.149Z,2.97
2023-05-21T15:43:21.853Z,2.70
2023-05-21T15:48:25.509Z,2.93
2023-05-21T15:53:30.467Z,3.50
2023-05-21T15:58:34.075Z,2.88
2023-05-21T16:03:37.778Z,2.63
2023-05-21T16:08:43.104Z,2.65
2023-05-21T16:13:46.645Z,2.67
2023-05-21T16:18:50.262Z,2.67
2023-05-21T16:23:55.396Z,2.28
2023-05-21T16:28:58.941Z,2.42
2023-05-21T16:34:02.449Z,2.80
2023-05-21T16:39:07.466Z,2.57
2023-05-21T16:44:11.043Z,2.85
2023-05-21T16:49:14.745Z,2.73
2023-05-21T16:54:19.687Z,2.70
2023-05-21T16:59:23.232Z,2.42
2023-05-21T17:04:26.709Z,2.90
2023-05-21T17:09:31.677Z,3.13
2023-05-21T17:14:37.730Z,3.15
2023-05-21T17:19:44.498Z,3.42
2023-05-21T17:24:49.917Z,3.58
2023-05-21T17:29:53.491Z,3.72
2023-05-21T17:34:56.989Z,3.97
2023-05-21T17:40:02.072Z,3.70
2023-05-21T17:45:08.065Z,4.10
2023-05-21T17:50:11.967Z,3.80
2023-05-21T17:55:17.180Z,4.25
2023-05-21T18:00:21.529Z,3.92
2023-05-21T18:05:25.199Z,3.75
2023-05-21T18:10:30.167Z,4.07
2023-05-21T18:15:34.561Z,4.13
2023-05-21T18:20:38.352Z,3.90
2023-05-21T18:25:43.557Z,4.07
2023-05-21T18:30:47.261Z,4.28
2023-05-21T18:35:50.756Z,3.97
2023-05-21T18:40:55.876Z,4.75
2023-05-21T18:46:00.890Z,7.05
2023-05-21T18:51:04.664Z,9.30
2023-05-21T18:56:10.425Z,8.60
2023-05-21T19:01:14.041Z,7.30
2023-05-21T19:06:17.633Z,5.67
2023-05-21T19:11:23.765Z,6.97
2023-05-21T19:16:27.614Z,6.22
2023-05-21T19:21:31.577Z,5.40
2023-05-21T19:26:36.644Z,5.13
2023-05-21T19:31:40.517Z,5.80
2023-05-21T19:36:52.880Z,5.40
2023-05-21T19:41:58.647Z,5.35
2023-05-21T19:47:03.032Z,5.55
2023-05-21T19:52:07.324Z,5.43
2023-05-21T19:57:13.435Z,5.57
2023-05-21T20:02:19.276Z,5.75
2023-05-21T20:07:22.839Z,5.50
2023-05-21T20:12:27.830Z,5.97
2023-05-21T20:17:34.366Z,5.80
2023-05-21T20:22:38.128Z,5.72
2023-05-21T20:27:43.160Z,5.70
2023-05-21T20:32:46.820Z,5.10
2023-05-21T20:37:50.462Z,4.95
2023-05-21T20:42:55.361Z,5.55
2023-05-21T20:48:01.466Z,4.72
2023-05-21T20:53:05.243Z,5.65
2023-05-21T20:58:10.349Z,5.10
2023-05-21T21:03:13.920Z,5.40
2023-05-21T21:08:17.524Z,5.55
2023-05-21T21:13:22.470Z,5.50
2023-05-21T21:18:25.982Z,5.63
2023-05-21T21:23:30.295Z,5.95
2023-05-21T21:28:35.279Z,5.85
2023-05-21T21:33:38.894Z,5.90
2023-05-21T21:38:42.548Z,5.57
2023-05-21T21:43:47.809Z,5.35
2023-05-21T21:48:51.401Z,5.53
2023-05-21T21:53:55.042Z,5.68
2023-05-21T21:58:59.972Z,5.45
2023-05-21T22:04:03.542Z,5.88
2023-05-21T22:09:07.723Z,5.63
2023-05-21T22:14:12.928Z,5.45
2023-05-21T22:19:20.651Z,6.18
2023-05-21T22:24:32.044Z,6.22
2023-05-21T22:29:38.402Z,5.97
2023-05-21T22:34:42.030Z,5.32
2023-05-21T22:39:45.521Z,5.18
2023-05-21T22:44:50.809Z,5.35
2023-05-21T22:49:54.474Z,5.68
2023-05-21T22:55:00.764Z,5.78
2023-05-21T23:00:07.666Z,6.60
2023-05-21T23:05:11.454Z,6.07
2023-05-21T23:10:14.984Z,6.07
2023-05-21T23:15:20.063Z,6.45
2023-05-21T23:20:24.790Z,6.75
2023-05-21T23:25:28.261Z,6.00
2023-05-21T23:30:33.319Z,6.05
2023-05-21T23:35:37.114Z,6.82
2023-05-21T23:40:40.788Z,6.57
2023-05-21T23:45:46.089Z,6.33
2023-05-21T23:50:49.795Z,6.65
2023-05-21T23:55:53.528Z,7.03
